Time;durP1;ratioP1;P1;durP2;ratioP2;P2;SDS_P1;SDS_P2;PMS_P1;PMS_P2;Temp;Humidity;BMP_temperature;BMP_pressure;BME280_temperature;BME280_humidity;BME280_pressure;Samples;Min_cycle;Max_cycle;Signal;HPM_P1;HPM_P2
2023/05/31 00:01:06;;;;;;;4.20;1.83;;;;;;;17.49;46.89;100914.56;10305502;28;20578;-58
2023/05/31 00:06:08;;;;;;;5.53;1.20;;;;;;;17.49;47.15;100917.28;10305522;28;20043;-60
2023/05/31 00:11:10;;;;;;;7.70;1.95;;;;;;;17.45;47.31;100914.13;10303597;28;20077;-59
2023/05/31 00:16:13;;;;;;;2.92;0.70;;;;;;;17.38;47.71;100918.72;10305315;28;20146;-59
2023/05/31 00:21:35;;;;;;;8.00;1.27;;;;;;;17.37;47.67;100925.19;10299782;28;20066;-59
2023/05/31 00:26:37;;;;;;;2.70;1.00;;;;;;;17.34;48.23;100924.81;10301871;28;20049;-59
2023/05/31 00:31:40;;;;;;;7.35;1.17;;;;;;;17.30;48.50;100916.22;10301666;28;20402;-58
2023/05/31 00:36:41;;;;;;;3.03;0.88;;;;;;;17.25;48.52;100922.25;10295766;28;20105;-58
2023/05/31 00:41:43;;;;;;;5.38;1.08;;;;;;;17.18;49.03;100921.41;10291932;28;20069;-59
2023/05/31 00:46:44;;;;;;;6.22;1.33;;;;;;;17.14;49.33;100925.59;10303291;28;20041;-57
2023/05/31 00:51:46;;;;;;;7.38;1.73;;;;;;;17.08;49.56;100922.84;10311702;28;20035;-58
2023/05/31 00:56:48;;;;;;;7.75;1.50;;;;;;;17.01;50.04;100922.84;10304017;28;20047;-58
2023/05/31 01:01:50;;;;;;;3.83;1.52;;;;;;;17.00;50.15;100924.72;10303566;28;20363;-59
2023/05/31 01:06:51;;;;;;;4.10;1.25;;;;;;;16.90;50.64;100924.25;10287727;28;20490;-59
2023/05/31 01:12:31;;;;;;;4.95;1.48;;;;;;;16.82;50.63;100900.84;10286854;28;20134;-60
2023/05/31 01:17:51;;;;;;;7.03;1.65;;;;;;;16.80;50.91;100911.00;10299844;28;20057;-59
2023/05/31 01:23:17;;;;;;;10.25;1.58;;;;;;;16.80;51.48;100910.19;10301247;28;20113;-59
2023/05/31 01:28:20;;;;;;;8.10;1.70;;;;;;;16.83;51.13;100899.78;10307070;28;20035;-59
2023/05/31 01:33:22;;;;;;;4.55;1.65;;;;;;;16.80;51.56;100905.59;10308429;28;20125;-60
2023/05/31 01:38:24;;;;;;;5.85;1.90;;;;;;;16.72;52.04;100919.34;10309903;28;20042;-59
2023/05/31 01:43:26;;;;;;;6.07;1.70;;;;;;;16.71;52.23;100912.25;10296379;28;20056;-59
2023/05/31 01:48:28;;;;;;;5.80;1.90;;;;;;;16.68;52.31;100909.09;10313823;28;20495;-59
2023/05/31 01:53:30;;;;;;;5.28;1.70;;;;;;;16.69;52.41;100905.34;10308592;28;20055;-60
2023/05/31 01:58:33;;;;;;;6.80;1.92;;;;;;;16.68;52.38;100914.53;10314289;28;20712;-59
2023/05/31 02:03:35;;;;;;;6.10;1.98;;;;;;;16.65;52.73;100913.06;10306609;28;20047;-58
2023/05/31 02:08:37;;;;;;;4.82;2.47;;;;;;;16.62;52.91;100908.84;10309029;28;20375;-59
2023/05/31 02:13:38;;;;;;;6.53;2.13;;;;;;;16.58;53.07;100912.19;10307121;28;20042;-59
2023/05/31 02:18:40;;;;;;;8.20;2.38;;;;;;;16.56;53.21;100914.25;10310694;28;20565;-63
2023/05/31 02:23:42;;;;;;;5.72;1.85;;;;;;;16.48;53.55;100914.44;10310743;28;20043;-63
2023/05/31 02:28:43;;;;;;;5.97;1.73;;;;;;;16.45;53.55;100912.97;10304596;28;20051;-63
2023/05/31 02:33:45;;;;;;;5.60;1.67;;;;;;;16.42;53.43;100911.47;10310157;28;20092;-62
2023/05/31 02:38:46;;;;;;;5.22;1.95;;;;;;;16.40;53.59;100916.25;10306538;28;20074;-62
2023/05/31 02:43:48;;;;;;;5.97;2.15;;;;;;;16.36;53.85;100917.72;10309064;28;20035;-63
2023/05/31 02:48:49;;;;;;;12.98;1.90;;;;;;;16.33;54.12;100912.69;10306843;28;20054;-62
2023/05/31 02:53:51;;;;;;;6.88;2.10;;;;;;;16.22;54.32;100902.41;10307276;28;20042;-61
2023/05/31 02:58:52;;;;;;;8.55;2.13;;;;;;;16.11;54.43;100898.34;10306850;28;20042;-60
2023/05/31 03:03:54;;;;;;;10.27;2.67;;;;;;;16.01;54.87;100904.13;10302899;28;20370;-61
2023/05/31 03:08:55;;;;;;;8.25;1.83;;;;;;;15.93;54.93;100907.00;10306958;28;20045;-62
2023/05/31 03:13:57;;;;;;;6.47;2.05;;;;;;;15.85;55.23;100909.84;10303455;28;20042;-61
2023/05/31 03:18:58;;;;;;;7.10;3.08;;;;;;;15.89;55.20;100923.88;10303679;28;20043;-66
2023/05/31 03:24:00;;;;;;;5.53;2.15;;;;;;;15.86;55.18;100916.97;10297278;28;20039;-65
2023/05/31 03:29:02;;;;;;;7.82;2.10;;;;;;;15.86;55.21;100922.41;10302411;28;20055;-65
2023/05/31 03:34:03;;;;;;;4.45;2.45;;;;;;;15.77;55.30;100918.97;10300535;28;20132;-64
2023/05/31 03:39:05;;;;;;;4.57;1.90;;;;;;;15.76;55.53;100916.47;10304679;28;20034;-65
2023/05/31 03:44:07;;;;;;;9.65;2.03;;;;;;;15.75;55.34;100923.75;10304308;28;20062;-65
2023/05/31 03:49:08;;;;;;;4.45;1.73;;;;;;;15.72;55.50;100924.13;10301830;28;20062;-63
2023/05/31 03:54:10;;;;;;;7.00;2.53;;;;;;;15.73;55.61;100927.69;10298325;28;20038;-64
2023/05/31 03:59:11;;;;;;;5.03;1.92;;;;;;;15.72;55.73;100926.84;10301544;28;20062;-64
2023/05/31 04:04:13;;;;;;;10.05;2.70;;;;;;;15.71;56.02;100924.31;10301839;28;20043;-62
2023/05/31 04:09:15;;;;;;;7.32;2.17;;;;;;;15.72;56.13;100925.97;10299808;28;20038;-65
2023/05/31 04:14:16;;;;;;;4.00;2.55;;;;;;;15.73;55.98;100933.13;10303573;28;20058;-63
2023/05/31 04:19:17;;;;;;;6.57;2.40;;;;;;;15.78;56.06;100936.09;10304310;28;20304;-63
2023/05/31 04:24:19;;;;;;;8.55;1.77;;;;;;;15.82;56.18;100938.22;10302404;28;20048;-64
2023/05/31 04:29:21;;;;;;;5.72;1.58;;;;;;;15.92;55.85;100928.91;10306237;28;20065;-59
2023/05/31 04:34:23;;;;;;;8.85;2.15;;;;;;;16.01;55.80;100939.38;10303654;28;20112;-58
2023/05/31 04:39:24;;;;;;;5.95;1.83;;;;;;;16.07;55.87;100945.91;10299685;28;20043;-58
2023/05/31 04:44:26;;;;;;;10.57;1.85;;;;;;;16.14;55.56;100952.22;10304687;28;20449;-59
2023/05/31 04:49:27;;;;;;;6.70;1.50;;;;;;;16.23;55.67;100951.03;10305450;28;20129;-58
2023/05/31 04:54:33;;;;;;;6.32;1.77;;;;;;;16.33;55.47;100949.81;10299502;28;20135;-59
2023/05/31 04:59:35;;;;;;;5.63;2.05;;;;;;;16.37;55.47;100946.53;10298910;28;20046;-58
2023/05/31 05:04:37;;;;;;;4.38;1.40;;;;;;;16.47;55.55;100943.47;10300171;28;20047;-59
2023/05/31 05:09:38;;;;;;;5.45;2.42;;;;;;;16.60;55.20;100946.22;10308064;28;20121;-61
2023/05/31 05:14:40;;;;;;;8.32;2.20;;;;;;;16.68;55.22;100950.66;10300687;28;20038;-60
2023/05/31 05:19:41;;;;;;;6.60;2.25;;;;;;;16.75;55.16;100959.69;10304813;28;20042;-59
2023/05/31 05:24:43;;;;;;;6.32;1.60;;;;;;;16.83;55.16;100951.38;10305192;28;20038;-62
2023/05/31 05:29:44;;;;;;;3.53;1.42;;;;;;;16.85;54.71;100953.91;10300961;28;20509;-59
2023/05/31 05:34:46;;;;;;;8.43;2.13;;;;;;;17.00;54.68;100959.16;10301678;28;20100;-61
2023/05/31 05:39:47;;;;;;;4.68;1.40;;;;;;;17.13;54.45;100961.94;10300781;28;20043;-59
2023/05/31 05:44:49;;;;;;;4.40;1.45;;;;;;;17.28;54.25;100964.50;10304720;28;20049;-59
2023/05/31 05:49:50;;;;;;;4.72;1.63;;;;;;;17.37;54.01;100974.13;10306004;28;20046;-58
2023/05/31 05:54:52;;;;;;;4.80;2.08;;;;;;;17.53;53.53;100977.50;10304751;28;20145;-59
2023/05/31 05:59:53;;;;;;;7.93;2.05;;;;;;;17.64;53.22;100980.44;10301396;28;20054;-60
2023/05/31 06:04:57;;;;;;;7.20;2.45;;;;;;;17.87;52.77;100986.56;10301341;28;20055;-59
2023/05/31 06:09:59;;;;;;;8.63;2.78;;;;;;;17.99;52.53;100977.59;10300585;28;20075;-60
2023/05/31 06:15:01;;;;;;;6.38;2.00;;;;;;;18.13;52.34;100983.84;10316712;28;20448;-61
2023/05/31 06:20:05;;;;;;;8.07;1.63;;;;;;;18.16;52.33;100982.59;10319001;28;20064;-59
2023/05/31 06:25:08;;;;;;;12.82;2.40;;;;;;;18.20;52.40;100976.50;10306260;28;20104;-59
2023/05/31 06:30:10;;;;;;;8.20;1.65;;;;;;;18.39;51.75;100974.81;10319165;28;20061;-61
2023/05/31 06:35:11;;;;;;;3.45;0.95;;;;;;;18.56;51.40;100986.09;10285503;28;20050;-61
2023/05/31 06:40:13;;;;;;;5.72;1.10;;;;;;;18.82;50.62;100976.22;10300740;28;20049;-61
2023/05/31 06:45:15;;;;;;;4.85;1.40;;;;;;;19.05;50.11;100978.41;10312799;28;20143;-61
2023/05/31 06:50:16;;;;;;;6.55;1.30;;;;;;;19.25;49.33;100974.75;10303844;28;20046;-60
2023/05/31 06:55:18;;;;;;;6.93;1.50;;;;;;;19.46;48.96;100963.50;10302304;28;20058;-61
2023/05/31 07:00:19;;;;;;;5.15;0.90;;;;;;;19.67;48.52;100967.78;10310951;28;20508;-59
2023/05/31 07:05:21;;;;;;;8.77;2.05;;;;;;;19.75;48.17;100962.06;10305290;28;20046;-61
2023/05/31 07:10:22;;;;;;;5.47;1.42;;;;;;;19.96;47.52;100966.31;10301998;28;20501;-60
2023/05/31 07:15:24;;;;;;;5.72;0.90;;;;;;;20.29;46.42;100961.59;10304422;28;20058;-59
2023/05/31 07:20:25;;;;;;;5.32;1.00;;;;;;;20.54;45.49;100959.66;10303846;28;20102;-60
2023/05/31 07:25:27;;;;;;;3.25;0.90;;;;;;;20.70;45.08;100957.41;10304404;28;20313;-60
2023/05/31 07:30:28;;;;;;;4.22;1.00;;;;;;;20.84;44.33;100953.44;10302816;28;20054;-60
2023/05/31 07:35:30;;;;;;;2.20;0.77;;;;;;;20.96;44.69;100948.03;10303448;28;20406;-60
2023/05/31 07:40:31;;;;;;;3.75;1.73;;;;;;;21.10;44.14;100944.06;10304548;28;20056;-61
2023/05/31 07:45:33;;;;;;;3.70;0.80;;;;;;;21.29;43.47;100935.81;10301870;28;20057;-59
2023/05/31 07:50:34;;;;;;;3.47;1.00;;;;;;;21.39;42.66;100931.44;10296466;28;20041;-59
2023/05/31 07:55:37;;;;;;;3.65;1.08;;;;;;;21.62;42.04;100929.03;10307568;28;20440;-59
2023/05/31 08:00:39;;;;;;;3.25;0.98;;;;;;;21.80;41.77;100931.69;10308639;28;20105;-59
2023/05/31 08:05:40;;;;;;;3.50;1.17;;;;;;;21.96;41.67;100924.69;10290966;28;20046;-59
2023/05/31 08:10:42;;;;;;;3.83;0.95;;;;;;;22.10;40.71;100920.63;10306329;28;20042;-60
2023/05/31 08:15:43;;;;;;;6.90;0.63;;;;;;;22.28;39.94;100916.94;10302699;28;20047;-60
2023/05/31 08:20:45;;;;;;;4.57;0.85;;;;;;;22.53;38.93;100924.03;10304697;28;20107;-60
2023/05/31 08:25:47;;;;;;;2.60;0.60;;;;;;;22.59;38.61;100917.63;10301352;28;20134;-60
2023/05/31 08:30:49;;;;;;;3.28;1.70;;;;;;;22.72;38.18;100908.28;10301721;28;20400;-60
2023/05/31 08:35:52;;;;;;;2.53;0.70;;;;;;;22.87;37.77;100907.78;10303322;28;20842;-60
2023/05/31 08:40:56;;;;;;;2.55;0.60;;;;;;;23.12;37.28;100901.94;10301824;28;20064;-61
2023/05/31 08:45:58;;;;;;;2.90;0.70;;;;;;;23.28;36.81;100897.56;10305995;28;20137;-60
2023/05/31 08:51:02;;;;;;;5.38;0.85;;;;;;;23.49;35.52;100893.28;10305526;28;20050;-60
2023/05/31 08:56:04;;;;;;;9.25;1.05;;;;;;;23.58;34.86;100896.44;10303972;28;20042;-60
2023/05/31 09:01:06;;;;;;;8.00;1.02;;;;;;;23.80;34.63;100889.16;10294242;28;21090;-60
2023/05/31 09:06:07;;;;;;;2.90;0.98;;;;;;;24.02;33.66;100882.88;10316730;28;20072;-59
2023/05/31 09:11:12;;;;;;;3.97;0.60;;;;;;;24.19;33.09;100889.19;10307031;28;21065;-63
2023/05/31 09:16:13;;;;;;;2.90;0.70;;;;;;;24.41;32.72;100882.84;10300812;28;20073;-65
2023/05/31 09:21:15;;;;;;;3.38;1.30;;;;;;;24.57;31.95;100892.16;10302894;28;20034;-64
2023/05/31 09:26:16;;;;;;;4.40;0.70;;;;;;;24.79;30.90;100879.22;10303654;28;20043;-64
2023/05/31 09:31:19;;;;;;;3.05;0.50;;;;;;;24.89;30.84;100873.00;10299706;28;20046;-63
2023/05/31 09:36:26;;;;;;;2.35;0.75;;;;;;;24.99;31.02;100861.28;10299319;28;20043;-64
2023/05/31 09:41:28;;;;;;;3.95;0.73;;;;;;;25.23;30.67;100861.81;10300520;28;20589;-65
2023/05/31 09:46:29;;;;;;;3.65;0.50;;;;;;;25.41;30.03;100855.91;10304004;28;20560;-63
2023/05/31 09:51:32;;;;;;;4.15;0.45;;;;;;;25.51;29.71;100858.75;10306558;28;20035;-64
2023/05/31 09:56:37;;;;;;;2.92;0.70;;;;;;;25.77;29.60;100839.66;10307662;28;20514;-66
2023/05/31 10:01:39;;;;;;;4.05;0.60;;;;;;;25.84;29.29;100834.75;10307297;28;20062;-62
2023/05/31 10:06:41;;;;;;;2.05;0.47;;;;;;;25.96;28.92;100837.31;10309039;28;20056;-64
2023/05/31 10:11:50;;;;;;;4.28;0.40;;;;;;;26.20;28.92;100832.19;10300751;28;20035;-63
2023/05/31 10:16:54;;;;;;;3.80;0.45;;;;;;;26.33;28.24;100832.81;10308778;28;20055;-64
2023/05/31 10:22:00;;;;;;;2.25;0.65;;;;;;;26.36;28.03;100830.34;10307205;28;20051;-64
2023/05/31 10:27:23;;;;;;;4.33;0.40;;;;;;;26.52;27.64;100825.69;10304675;28;20054;-66
2023/05/31 10:32:26;;;;;;;5.35;0.50;;;;;;;26.63;27.54;100810.88;10306445;28;20053;-63
2023/05/31 10:37:29;;;;;;;5.95;0.60;;;;;;;26.84;27.67;100820.03;10309806;28;20807;-64
2023/05/31 10:42:52;;;;;;;11.43;2.53;;;;;;;27.03;27.72;100805.69;10305441;28;20260;-64
2023/05/31 10:48:03;;;;;;;5.47;0.98;;;;;;;27.29;26.91;100804.63;10307203;28;20054;-63
2023/05/31 10:53:10;;;;;;;6.03;1.30;;;;;;;27.29;26.97;100790.84;10307116;28;20057;-63
2023/05/31 10:58:35;;;;;;;3.22;0.40;;;;;;;27.38;26.47;100793.03;10301493;28;20066;-63
2023/05/31 11:03:49;;;;;;;4.97;0.43;;;;;;;27.61;26.46;100783.34;10307071;28;20509;-63
2023/05/31 11:09:05;;;;;;;4.20;0.50;;;;;;;27.75;26.07;100783.59;10323743;28;20058;-65
2023/05/31 11:14:09;;;;;;;2.75;0.50;;;;;;;27.80;26.46;100784.38;10315698;28;20049;-63
2023/05/31 11:19:15;;;;;;;2.00;0.75;;;;;;;27.93;26.42;100765.59;10301276;28;20122;-64
2023/05/31 11:24:30;;;;;;;;;;;;;;;28.01;26.96;100776.88;10284112;28;20049;-64
2023/05/31 11:29:46;;;;;;;4.05;1.20;;;;;;;28.16;26.45;100770.47;10274546;28;20297;-62
2023/05/31 11:34:53;;;;;;;2.80;0.50;;;;;;;28.42;26.15;100760.09;10306985;28;20406;-64
2023/05/31 11:39:59;;;;;;;3.03;0.50;;;;;;;28.57;25.37;100759.19;10286196;28;20090;-63
2023/05/31 11:45:09;;;;;;;1.77;0.30;;;;;;;28.56;24.97;100753.97;10303515;28;20043;-66
2023/05/31 11:50:16;;;;;;;3.45;0.50;;;;;;;28.75;24.89;100757.66;10303054;28;20488;-65
2023/05/31 11:55:17;;;;;;;3.15;0.35;;;;;;;28.76;24.19;100747.44;10274157;28;20046;-64
2023/05/31 12:00:21;;;;;;;1.35;0.40;;;;;;;28.85;24.33;100734.63;10302975;28;20121;-62
2023/05/31 12:05:23;;;;;;;1.95;0.30;;;;;;;28.90;23.87;100734.59;10303707;28;20042;-63
2023/05/31 12:10:30;;;;;;;0.73;0.30;;;;;;;29.08;23.75;100725.56;10303127;28;20050;-64
2023/05/31 12:15:32;;;;;;;0.98;0.30;;;;;;;29.27;23.90;100730.44;10301421;28;20053;-64
2023/05/31 12:20:34;;;;;;;3.70;0.40;;;;;;;29.42;23.64;100710.88;10284697;28;20516;-64
2023/05/31 12:25:36;;;;;;;1.67;0.43;;;;;;;29.40;23.88;100715.03;10298791;28;20137;-63
2023/05/31 12:30:43;;;;;;;4.82;0.63;;;;;;;29.62;24.38;100697.88;10305781;28;20081;-63
2023/05/31 12:36:03;;;;;;;1.83;0.40;;;;;;;29.80;24.16;100699.94;10306640;28;20047;-63
2023/05/31 12:41:05;;;;;;;1.70;0.50;;;;;;;29.84;23.63;100695.44;10301576;28;20057;-65
2023/05/31 12:46:06;;;;;;;6.45;0.60;;;;;;;29.70;23.29;100688.94;10284948;28;20449;-64
2023/05/31 12:51:07;;;;;;;5.13;0.43;;;;;;;29.94;23.66;100677.84;10300601;28;20130;-66
2023/05/31 12:56:09;;;;;;;1.27;0.47;;;;;;;30.09;23.04;100687.06;10293035;28;20058;-62
2023/05/31 13:01:13;;;;;;;1.23;0.30;;;;;;;30.40;22.40;100677.19;10299288;23;20113;-60
2023/05/31 13:06:14;;;;;;;4.35;0.57;;;;;;;30.25;22.69;100677.38;10276005;28;20106;-62
2023/05/31 13:11:16;;;;;;;1.67;0.45;;;;;;;30.15;22.75;100681.13;10279451;28;20047;-61
2023/05/31 13:16:17;;;;;;;3.25;0.90;;;;;;;30.46;22.65;100664.06;10276958;28;20094;-61
2023/05/31 13:21:18;;;;;;;2.00;0.40;;;;;;;30.86;23.16;100660.91;10281542;28;20525;-61
2023/05/31 13:26:22;;;;;;;2.33;0.60;;;;;;;30.97;23.04;100652.13;10285786;28;20498;-61
2023/05/31 13:31:24;;;;;;;1.92;0.40;;;;;;;31.01;22.60;100649.56;10288016;28;20053;-61
2023/05/31 13:36:26;;;;;;;3.28;0.60;;;;;;;31.28;22.18;100657.09;10271377;28;20449;-62
2023/05/31 13:41:27;;;;;;;4.55;0.45;;;;;;;31.56;22.00;100646.00;10290440;28;20042;-63
2023/05/31 13:46:28;;;;;;;2.20;0.35;;;;;;;31.90;21.91;100651.09;10289962;28;20053;-64
2023/05/31 13:51:30;;;;;;;0.98;0.40;;;;;;;32.00;21.61;100636.13;10292097;28;20121;-62
2023/05/31 13:56:32;;;;;;;2.70;0.57;;;;;;;31.91;21.85;100633.28;10286702;28;20377;-63
2023/05/31 14:01:33;;;;;;;2.03;0.93;;;;;;;31.90;21.68;100637.19;10287018;28;20050;-61
2023/05/31 14:06:35;;;;;;;2.03;0.40;;;;;;;31.73;21.84;100623.94;10291280;28;20042;-62
2023/05/31 14:11:37;;;;;;;4.60;0.50;;;;;;;31.51;22.45;100621.91;10293037;28;20105;-62
2023/05/31 14:16:38;;;;;;;3.80;0.50;;;;;;;31.67;21.67;100627.97;10325343;28;20050;-62
2023/05/31 14:21:40;;;;;;;3.53;0.40;;;;;;;31.65;22.18;100605.22;10307044;28;20038;-63
2023/05/31 14:26:44;;;;;;;2.83;0.40;;;;;;;31.61;22.28;100616.13;10326774;28;20047;-64
2023/05/31 14:31:45;;;;;;;3.33;0.65;;;;;;;31.67;22.07;100611.28;10319092;28;20057;-65
2023/05/31 14:36:47;;;;;;;2.03;0.52;;;;;;;31.68;22.30;100601.00;10316435;28;20078;-62
2023/05/31 14:41:49;;;;;;;2.95;0.90;;;;;;;32.03;21.90;100596.59;10323055;28;20046;-61
2023/05/31 14:46:54;;;;;;;2.17;0.45;;;;;;;32.13;21.92;100593.56;10327692;28;20062;-63
2023/05/31 14:51:58;;;;;;;6.00;0.70;;;;;;;32.17;21.92;100588.19;10325239;28;20122;-63
2023/05/31 14:57:02;;;;;;;2.05;0.50;;;;;;;32.38;22.02;100577.38;10324090;28;20046;-63
2023/05/31 15:02:04;;;;;;;6.03;0.50;;;;;;;32.32;21.65;100573.06;10324165;28;20058;-64
2023/05/31 15:07:05;;;;;;;3.53;0.45;;;;;;;32.44;21.50;100576.09;10336429;28;20121;-63
2023/05/31 15:12:08;;;;;;;4.45;0.50;;;;;;;32.41;21.31;100573.97;10329308;28;20046;-62
2023/05/31 15:17:09;;;;;;;5.88;0.68;;;;;;;32.27;21.49;100581.53;10313904;28;20054;-62
2023/05/31 15:22:11;;;;;;;2.30;0.60;;;;;;;32.56;21.20;100581.09;10294844;28;20054;-62
2023/05/31 15:27:13;;;;;;;2.40;0.30;;;;;;;32.78;21.40;100583.88;10281499;28;20160;-64
2023/05/31 15:32:15;;;;;;;1.55;0.50;;;;;;;32.58;21.11;100578.81;10314164;28;20042;-62
2023/05/31 15:37:16;;;;;;;3.70;0.75;;;;;;;32.58;21.06;100571.31;10300300;28;20056;-63
2023/05/31 15:42:18;;;;;;;2.05;0.50;;;;;;;32.67;21.12;100568.56;10310435;28;20320;-62
2023/05/31 15:47:19;;;;;;;2.53;0.73;;;;;;;33.05;20.95;100570.84;10311349;28;20038;-64
2023/05/31 15:52:21;;;;;;;2.65;0.40;;;;;;;32.87;21.08;100555.22;10317197;28;20055;-64
2023/05/31 15:57:22;;;;;;;1.98;0.55;;;;;;;33.13;20.51;100567.31;10310242;28;20052;-64
2023/05/31 16:02:24;;;;;;;2.33;0.47;;;;;;;33.09;20.64;100551.53;10310043;28;20050;-64
2023/05/31 16:07:27;;;;;;;3.33;0.40;;;;;;;33.12;20.48;100550.94;10316097;28;20081;-63
2023/05/31 16:12:28;;;;;;;1.45;0.52;;;;;;;33.62;20.83;100544.97;10319614;28;20049;-63
2023/05/31 16:17:30;;;;;;;5.10;0.38;;;;;;;33.69;20.38;100536.09;10291937;28;20126;-62
2023/05/31 16:22:31;;;;;;;3.05;0.60;;;;;;;33.98;19.92;100535.44;10297629;28;20050;-61
2023/05/31 16:27:33;;;;;;;1.73;0.60;;;;;;;34.17;20.18;100530.38;10313746;28;20055;-63
2023/05/31 16:32:34;;;;;;;2.38;0.50;;;;;;;34.17;20.09;100530.38;10294525;28;20055;-63
2023/05/31 16:37:36;;;;;;;1.85;0.50;;;;;;;34.15;19.68;100534.66;10279356;28;20058;-64
2023/05/31 16:42:38;;;;;;;1.65;0.40;;;;;;;34.05;19.82;100529.38;10315753;28;20049;-64
2023/05/31 16:47:39;;;;;;;3.92;0.50;;;;;;;34.13;20.19;100517.38;10323543;28;20182;-66
2023/05/31 16:52:41;;;;;;;3.08;0.50;;;;;;;34.09;20.31;100520.00;10308205;28;20042;-64
2023/05/31 16:57:42;;;;;;;2.38;0.50;;;;;;;34.12;20.03;100516.53;10310501;28;20070;-66
2023/05/31 17:02:44;;;;;;;4.28;0.40;;;;;;;34.26;19.65;100513.59;10277265;28;20053;-65
2023/05/31 17:07:45;;;;;;;3.70;0.40;;;;;;;34.34;19.86;100521.16;10302835;28;20364;-66
2023/05/31 17:12:48;;;;;;;1.73;0.40;;;;;;;34.36;19.74;100521.63;10273434;28;20130;-65
2023/05/31 17:17:49;;;;;;;3.13;0.50;;;;;;;34.43;19.32;100523.91;10279912;28;20063;-63
2023/05/31 17:22:51;;;;;;;3.47;0.60;;;;;;;34.26;19.56;100519.16;10279603;28;20046;-65
2023/05/31 17:27:53;;;;;;;3.42;0.50;;;;;;;34.22;19.78;100509.81;10278604;28;20505;-66
2023/05/31 17:32:55;;;;;;;2.90;0.50;;;;;;;33.59;20.07;100512.97;10280546;28;20141;-66
2023/05/31 17:37:57;;;;;;;4.10;0.50;;;;;;;33.56;20.56;100516.41;10281626;28;20062;-66
2023/05/31 17:42:58;;;;;;;3.63;0.40;;;;;;;33.88;20.10;100519.88;10286620;28;20058;-66
2023/05/31 17:48:00;;;;;;;2.35;0.70;;;;;;;33.91;19.94;100518.41;10287867;28;20050;-67
2023/05/31 17:53:02;;;;;;;2.35;0.40;;;;;;;33.85;20.05;100511.31;10284556;28;20508;-66
2023/05/31 17:58:03;;;;;;;1.60;0.40;;;;;;;33.17;20.41;100514.53;10285971;28;20133;-66
2023/05/31 18:03:04;;;;;;;1.55;0.73;;;;;;;32.47;20.98;100522.59;10280925;28;20046;-72
2023/05/31 18:08:06;;;;;;;1.50;0.47;;;;;;;31.92;21.72;100512.56;10287249;28;20109;-71
2023/05/31 18:13:08;;;;;;;2.25;0.60;;;;;;;31.21;21.59;100509.44;10295341;28;20051;-73
2023/05/31 18:18:10;;;;;;;1.35;0.55;;;;;;;30.55;22.68;100515.19;10289569;28;20076;-71
2023/05/31 18:23:11;;;;;;;0.55;0.40;;;;;;;29.76;22.86;100512.34;10272371;28;20058;-73
2023/05/31 18:28:13;;;;;;;4.00;0.70;;;;;;;29.02;24.21;100515.53;10269370;28;20061;-69
2023/05/31 18:33:15;;;;;;;1.40;0.40;;;;;;;28.50;24.71;100523.56;10284466;28;20462;-69
2023/05/31 18:38:17;;;;;;;2.25;0.90;;;;;;;28.12;25.67;100526.13;10289444;28;20113;-71
2023/05/31 18:43:20;;;;;;;2.83;0.50;;;;;;;27.71;26.22;100520.88;10274044;28;20047;-69
2023/05/31 18:48:22;;;;;;;1.52;0.60;;;;;;;27.26;26.66;100531.06;10279207;28;20049;-72
2023/05/31 18:53:23;;;;;;;2.00;0.70;;;;;;;26.94;27.68;100526.75;10286197;28;20461;-71
2023/05/31 18:58:26;;;;;;;3.80;1.00;;;;;;;26.68;28.11;100526.00;10269979;28;20457;-71
2023/05/31 19:03:28;;;;;;;3.75;0.80;;;;;;;26.28;28.67;100531.25;10290139;28;20058;-71
2023/05/31 19:08:29;;;;;;;4.43;0.70;;;;;;;25.96;29.14;100538.97;10289339;28;20106;-73
2023/05/31 19:13:31;;;;;;;2.35;0.60;;;;;;;25.61;29.98;100540.50;10289777;28;20054;-68
2023/05/31 19:18:32;;;;;;;2.78;0.40;;;;;;;25.30;30.28;100540.44;10286105;28;20053;-68
2023/05/31 19:23:34;;;;;;;3.03;0.65;;;;;;;25.10;30.64;100547.47;10285881;28;20053;-67
2023/05/31 19:28:35;;;;;;;5.00;0.50;;;;;;;24.85;31.38;100542.66;10286286;28;20357;-63
2023/05/31 19:33:37;;;;;;;4.28;0.50;;;;;;;24.68;31.58;100555.75;10282979;28;20060;-65
2023/05/31 19:38:38;;;;;;;1.92;0.70;;;;;;;24.48;31.95;100553.66;10284542;28;20065;-65
2023/05/31 19:43:40;;;;;;;2.60;0.63;;;;;;;24.33;32.05;100554.41;10279304;28;20483;-64
2023/05/31 19:48:41;;;;;;;3.83;1.17;;;;;;;24.14;32.43;100556.69;10288090;28;20450;-65
2023/05/31 19:53:43;;;;;;;2.53;0.50;;;;;;;23.91;33.00;100566.09;10284243;28;20059;-65
2023/05/31 19:58:44;;;;;;;5.35;0.75;;;;;;;23.74;33.01;100561.50;10271905;28;20058;-65
2023/05/31 20:03:46;;;;;;;3.75;0.80;;;;;;;23.53;33.42;100568.69;10286804;28;20050;-65
2023/05/31 20:08:47;;;;;;;4.40;0.80;;;;;;;23.38;33.51;100565.78;10287662;28;20049;-65
2023/05/31 20:13:49;;;;;;;2.58;0.40;;;;;;;23.27;33.58;100570.28;10275250;28;20405;-65
2023/05/31 20:18:51;;;;;;;3.08;1.13;;;;;;;23.12;33.82;100565.47;10284328;28;20046;-66
2023/05/31 20:23:52;;;;;;;2.75;0.55;;;;;;;23.02;33.98;100576.25;10287050;28;20054;-65
2023/05/31 20:28:54;;;;;;;4.00;0.85;;;;;;;22.99;33.88;100576.75;10283994;28;20081;-67
2023/05/31 20:33:55;;;;;;;1.45;0.60;;;;;;;22.86;34.20;100577.94;10285103;28;20046;-65
2023/05/31 20:38:57;;;;;;;2.90;0.50;;;;;;;22.77;34.17;100584.94;10273266;28;20046;-67
2023/05/31 20:43:59;;;;;;;6.13;1.00;;;;;;;22.69;34.49;100580.72;10288131;28;20051;-67
2023/05/31 20:49:02;;;;;;;3.58;0.70;;;;;;;22.59;34.67;100566.88;10269368;28;20042;-68
2023/05/31 20:54:03;;;;;;;4.55;0.70;;;;;;;22.56;34.29;100570.09;10291056;28;20049;-67
2023/05/31 20:59:05;;;;;;;3.65;0.80;;;;;;;22.45;34.75;100571.00;10287845;28;20462;-68
2023/05/31 21:04:06;;;;;;;7.03;0.70;;;;;;;22.38;34.74;100572.00;10287498;28;20065;-66
2023/05/31 21:09:08;;;;;;;5.70;1.35;;;;;;;22.43;34.92;100582.19;10269796;28;20049;-66
2023/05/31 21:14:10;;;;;;;3.38;0.60;;;;;;;22.39;34.63;100578.31;10280777;28;20054;-66
2023/05/31 21:19:12;;;;;;;3.20;0.73;;;;;;;22.36;34.86;100582.38;10284902;28;20089;-65
2023/05/31 21:24:13;;;;;;;4.63;0.75;;;;;;;22.31;35.23;100578.72;10283028;28;20042;-66
2023/05/31 21:29:14;;;;;;;2.47;0.50;;;;;;;22.22;35.64;100582.94;10279550;28;20043;-65
2023/05/31 21:34:20;;;;;;;4.13;0.52;;;;;;;22.13;35.81;100575.09;10284399;28;20043;-64
2023/05/31 21:39:22;;;;;;;3.83;0.60;;;;;;;22.13;36.13;100580.56;10280122;28;20038;-63
2023/05/31 21:44:24;;;;;;;1.92;0.60;;;;;;;22.09;36.04;100584.06;10285058;28;20047;-61
2023/05/31 21:49:25;;;;;;;3.50;0.57;;;;;;;21.95;36.66;100589.84;10288886;28;20055;-60
2023/05/31 21:54:27;;;;;;;3.25;0.80;;;;;;;21.84;36.71;100593.50;10286954;28;20047;-60
2023/05/31 21:59:28;;;;;;;1.65;0.50;;;;;;;21.75;37.07;100589.47;10287968;28;20061;-62
2023/05/31 22:04:31;;;;;;;3.70;0.90;;;;;;;21.68;36.82;100594.25;10294838;28;20061;-60
2023/05/31 22:09:32;;;;;;;2.45;0.80;;;;;;;21.58;37.23;100590.25;10283943;28;20051;-63
2023/05/31 22:14:34;;;;;;;3.33;0.93;;;;;;;21.45;37.49;100593.25;10292798;28;20039;-60
2023/05/31 22:19:37;;;;;;;2.70;0.70;;;;;;;21.33;37.86;100601.47;10295588;28;20078;-63
2023/05/31 22:24:38;;;;;;;2.97;0.88;;;;;;;21.25;38.18;100604.59;10287373;28;20162;-60
2023/05/31 22:29:40;;;;;;;5.07;1.20;;;;;;;21.13;39.22;100612.78;10287444;28;20042;-61
2023/05/31 22:34:41;;;;;;;3.53;1.17;;;;;;;20.99;39.52;100605.91;10287309;28;20134;-61
2023/05/31 22:39:43;;;;;;;4.88;1.45;;;;;;;20.84;40.21;100616.50;10295479;28;20093;-60
2023/05/31 22:44:44;;;;;;;2.72;1.10;;;;;;;20.69;40.73;100608.75;10285699;28;20092;-60
2023/05/31 22:49:46;;;;;;;4.13;1.00;;;;;;;20.53;41.07;100613.81;10291526;28;20058;-64
2023/05/31 22:54:47;;;;;;;2.58;1.27;;;;;;;20.42;41.39;100611.91;10298145;28;20045;-60
2023/05/31 22:59:48;;;;;;;2.53;1.17;;;;;;;20.29;41.63;100614.84;10288315;28;20043;-62
2023/05/31 23:04:51;;;;;;;6.97;1.02;;;;;;;20.17;42.16;100606.63;10291465;28;20047;-64
2023/05/31 23:09:52;;;;;;;4.40;1.20;;;;;;;20.05;42.38;100608.50;10283774;28;20066;-61